sensor_id;sensor_type;location;lat;lon;timestamp;pressure;altitude;pressure_sealevel;temperature;humidity
74708;BME280;63360;50.104;8.074;2023-02-19T00:03:38;97507.78;;;8.12;100.00
74708;BME280;63360;50.104;8.074;2023-02-19T00:06:06;97501.28;;;8.15;100.00
74708;BME280;63360;50.104;8.074;2023-02-19T00:08:34;97490.44;;;8.13;100.00
74708;BME280;63360;50.104;8.074;2023-02-19T00:11:07;97496.88;;;8.15;100.00
74708;BME280;63360;50.104;8.074;2023-02-19T00:13:35;97489.78;;;8.02;100.00
74708;BME280;63360;50.104;8.074;2023-02-19T00:16:07;97505.81;;;8.04;100.00
74708;BME280;63360;50.104;8.074;2023-02-19T00:18:34;97482.81;;;8.03;100.00
74708;BME280;63360;50.104;8.074;2023-02-19T00:21:01;97507.22;;;8.15;100.00
74708;BME280;63360;50.104;8.074;2023-02-19T00:23:28;97517.88;;;8.14;100.00
74708;BME280;63360;50.104;8.074;2023-02-19T00:25:54;97528.50;;;8.12;100.00
74708;BME280;63360;50.104;8.074;2023-02-19T00:28:28;97510.19;;;8.09;100.00
74708;BME280;63360;50.104;8.074;2023-02-19T00:30:54;97521.09;;;8.06;100.00
74708;BME280;63360;50.104;8.074;2023-02-19T00:33:21;97528.09;;;8.05;100.00
74708;BME280;63360;50.104;8.074;2023-02-19T00:35:47;97522.38;;;8.08;100.00
74708;BME280;63360;50.104;8.074;2023-02-19T00:38:14;97493.56;;;8.10;100.00
74708;BME280;63360;50.104;8.074;2023-02-19T00:40:40;97497.00;;;8.05;100.00
74708;BME280;63360;50.104;8.074;2023-02-19T00:43:06;97492.38;;;8.02;100.00
74708;BME280;63360;50.104;8.074;2023-02-19T00:45:33;97489.16;;;8.10;100.00
74708;BME280;63360;50.104;8.074;2023-02-19T00:48:00;97479.03;;;8.14;100.00
74708;BME280;63360;50.104;8.074;2023-02-19T00:50:27;97495.53;;;8.18;100.00
74708;BME280;63360;50.104;8.074;2023-02-19T00:52:53;97506.13;;;8.21;100.00
74708;BME280;63360;50.104;8.074;2023-02-19T00:55:19;97475.03;;;8.03;100.00
74708;BME280;63360;50.104;8.074;2023-02-19T00:57:46;97481.94;;;8.07;100.00
74708;BME280;63360;50.104;8.074;2023-02-19T01:00:12;97493.31;;;8.11;100.00
74708;BME280;63360;50.104;8.074;2023-02-19T01:02:39;97480.06;;;8.13;100.00
74708;BME280;63360;50.104;8.074;2023-02-19T01:05:05;97492.69;;;8.19;100.00
74708;BME280;63360;50.104;8.074;2023-02-19T01:07:34;97490.16;;;8.14;100.00
74708;BME280;63360;50.104;8.074;2023-02-19T01:10:01;97476.59;;;8.04;100.00
74708;BME280;63360;50.104;8.074;2023-02-19T01:12:27;97481.88;;;8.12;100.00
74708;BME280;63360;50.104;8.074;2023-02-19T01:14:54;97488.13;;;8.11;100.00
74708;BME280;63360;50.104;8.074;2023-02-19T01:17:20;97472.03;;;8.14;100.00
74708;BME280;63360;50.104;8.074;2023-02-19T01:19:47;97475.72;;;8.08;100.00
74708;BME280;63360;50.104;8.074;2023-02-19T01:22:13;97479.84;;;8.09;100.00
74708;BME280;63360;50.104;8.074;2023-02-19T01:24:40;97478.66;;;8.02;100.00
74708;BME280;63360;50.104;8.074;2023-02-19T01:27:06;97477.84;;;8.06;100.00
74708;BME280;63360;50.104;8.074;2023-02-19T01:29:32;97482.09;;;7.97;100.00
74708;BME280;63360;50.104;8.074;2023-02-19T01:31:59;97485.63;;;8.06;100.00
74708;BME280;63360;50.104;8.074;2023-02-19T01:34:25;97457.13;;;8.06;100.00
74708;BME280;63360;50.104;8.074;2023-02-19T01:36:55;97462.47;;;8.10;100.00
74708;BME280;63360;50.104;8.074;2023-02-19T01:39:21;97454.44;;;8.11;100.00
74708;BME280;63360;50.104;8.074;2023-02-19T01:41:48;97463.97;;;8.16;100.00
74708;BME280;63360;50.104;8.074;2023-02-19T01:46:41;97442.13;;;8.03;100.00
74708;BME280;63360;50.104;8.074;2023-02-19T01:49:18;97433.28;;;8.04;100.00
74708;BME280;63360;50.104;8.074;2023-02-19T01:51:54;97424.47;;;8.05;100.00
74708;BME280;63360;50.104;8.074;2023-02-19T01:54:25;97424.00;;;8.03;100.00
74708;BME280;63360;50.104;8.074;2023-02-19T01:56:54;97421.69;;;7.83;100.00
74708;BME280;63360;50.104;8.074;2023-02-19T01:59:21;97433.84;;;8.01;100.00
74708;BME280;63360;50.104;8.074;2023-02-19T02:01:48;97422.53;;;7.97;100.00
74708;BME280;63360;50.104;8.074;2023-02-19T02:04:15;97425.53;;;8.04;100.00
74708;BME280;63360;50.104;8.074;2023-02-19T02:09:15;97419.59;;;7.85;100.00
74708;BME280;63360;50.104;8.074;2023-02-19T02:12:00;97420.63;;;7.84;100.00
74708;BME280;63360;50.104;8.074;2023-02-19T02:14:30;97418.94;;;7.93;100.00
74708;BME280;63360;50.104;8.074;2023-02-19T02:20:25;97427.41;;;7.99;100.00
74708;BME280;63360;50.104;8.074;2023-02-19T02:22:29;97400.41;;;7.86;100.00
74708;BME280;63360;50.104;8.074;2023-02-19T02:27:38;97425.59;;;7.99;100.00
74708;BME280;63360;50.104;8.074;2023-02-19T02:33:28;97408.31;;;7.94;100.00
74708;BME280;63360;50.104;8.074;2023-02-19T02:36:00;97403.91;;;7.95;100.00
74708;BME280;63360;50.104;8.074;2023-02-19T02:38:31;97388.94;;;7.92;100.00
74708;BME280;63360;50.104;8.074;2023-02-19T02:40:58;97395.84;;;7.97;100.00
74708;BME280;63360;50.104;8.074;2023-02-19T02:43:25;97388.94;;;7.92;100.00
74708;BME280;63360;50.104;8.074;2023-02-19T02:45:52;97398.16;;;7.98;100.00
74708;BME280;63360;50.104;8.074;2023-02-19T02:48:27;97379.41;;;7.87;100.00
74708;BME280;63360;50.104;8.074;2023-02-19T02:51:26;97381.56;;;7.80;100.00
74708;BME280;63360;50.104;8.074;2023-02-19T02:54:17;97386.56;;;7.77;100.00
74708;BME280;63360;50.104;8.074;2023-02-19T02:57:05;97388.31;;;7.63;100.00
74708;BME280;63360;50.104;8.074;2023-02-19T02:59:36;97396.34;;;7.61;100.00
74708;BME280;63360;50.104;8.074;2023-02-19T03:02:09;97376.22;;;7.58;100.00
74708;BME280;63360;50.104;8.074;2023-02-19T03:07:56;97393.47;;;7.63;100.00
74708;BME280;63360;50.104;8.074;2023-02-19T03:10:34;97395.66;;;7.56;100.00
74708;BME280;63360;50.104;8.074;2023-02-19T03:13:05;97393.19;;;7.46;100.00
74708;BME280;63360;50.104;8.074;2023-02-19T03:15:55;97403.28;;;7.47;100.00
74708;BME280;63360;50.104;8.074;2023-02-19T03:18:50;97391.22;;;7.38;100.00
74708;BME280;63360;50.104;8.074;2023-02-19T03:21:37;97389.19;;;7.34;100.00
74708;BME280;63360;50.104;8.074;2023-02-19T03:24:07;97388.84;;;7.41;100.00
74708;BME280;63360;50.104;8.074;2023-02-19T03:26:54;97388.84;;;7.41;100.00
74708;BME280;63360;50.104;8.074;2023-02-19T03:29:23;97393.09;;;7.32;100.00
74708;BME280;63360;50.104;8.074;2023-02-19T03:31:54;97406.66;;;7.43;100.00
74708;BME280;63360;50.104;8.074;2023-02-19T03:34:27;97396.19;;;7.34;100.00
74708;BME280;63360;50.104;8.074;2023-02-19T03:37:00;97397.88;;;7.44;100.00
74708;BME280;63360;50.104;8.074;2023-02-19T03:39:29;97398.59;;;7.49;100.00
74708;BME280;63360;50.104;8.074;2023-02-19T03:42:16;97404.44;;;7.36;100.00
74708;BME280;63360;50.104;8.074;2023-02-19T03:47:26;97399.53;;;7.34;100.00
74708;BME280;63360;50.104;8.074;2023-02-19T03:50:21;97414.03;;;7.36;100.00
74708;BME280;63360;50.104;8.074;2023-02-19T03:53:02;97398.97;;;7.38;100.00
74708;BME280;63360;50.104;8.074;2023-02-19T03:55:40;97417.09;;;7.38;100.00
74708;BME280;63360;50.104;8.074;2023-02-19T03:58:17;97402.81;;;7.40;100.00
74708;BME280;63360;50.104;8.074;2023-02-19T04:01:01;97385.56;;;7.36;100.00
74708;BME280;63360;50.104;8.074;2023-02-19T04:03:44;97384.59;;;7.31;100.00
74708;BME280;63360;50.104;8.074;2023-02-19T04:06:16;97394.94;;;7.31;100.00
74708;BME280;63360;50.104;8.074;2023-02-19T04:08:46;97382.31;;;7.25;100.00
74708;BME280;63360;50.104;8.074;2023-02-19T04:11:15;97380.50;;;7.25;100.00
74708;BME280;63360;50.104;8.074;2023-02-19T04:13:45;97373.59;;;7.21;100.00
74708;BME280;63360;50.104;8.074;2023-02-19T04:16:21;97364.56;;;7.18;100.00
74708;BME280;63360;50.104;8.074;2023-02-19T04:18:52;97369.63;;;7.05;100.00
74708;BME280;63360;50.104;8.074;2023-02-19T04:21:21;97363.47;;;7.01;100.00
74708;BME280;63360;50.104;8.074;2023-02-19T04:23:49;97382.03;;;7.08;100.00
74708;BME280;63360;50.104;8.074;2023-02-19T04:26:16;97368.81;;;7.09;100.00
74708;BME280;63360;50.104;8.074;2023-02-19T04:28:43;97355.78;;;6.96;100.00
74708;BME280;63360;50.104;8.074;2023-02-19T04:31:09;97383.38;;;7.00;100.00
74708;BME280;63360;50.104;8.074;2023-02-19T04:33:37;97384.94;;;7.01;100.00
74708;BME280;63360;50.104;8.074;2023-02-19T04:36:03;97409.75;;;7.02;100.00
74708;BME280;63360;50.104;8.074;2023-02-19T04:38:30;97410.56;;;6.98;100.00
74708;BME280;63360;50.104;8.074;2023-02-19T04:40:56;97416.19;;;7.05;100.00
74708;BME280;63360;50.104;8.074;2023-02-19T04:43:23;97419.28;;;7.07;100.00
74708;BME280;63360;50.104;8.074;2023-02-19T04:45:49;97412.06;;;7.04;100.00
74708;BME280;63360;50.104;8.074;2023-02-19T04:48:15;97419.28;;;7.07;100.00
74708;BME280;63360;50.104;8.074;2023-02-19T04:50:42;97429.28;;;7.13;100.00
74708;BME280;63360;50.104;8.074;2023-02-19T04:53:08;97427.41;;;7.19;100.00
74708;BME280;63360;50.104;8.074;2023-02-19T04:55:36;97409.16;;;7.10;100.00
74708;BME280;63360;50.104;8.074;2023-02-19T04:58:03;97429.28;;;7.13;100.00
74708;BME280;63360;50.104;8.074;2023-02-19T05:00:30;97437.81;;;7.14;100.00
74708;BME280;63360;50.104;8.074;2023-02-19T05:02:56;97436.53;;;7.11;100.00
74708;BME280;63360;50.104;8.074;2023-02-19T05:05:23;97436.00;;;7.14;100.00
74708;BME280;63360;50.104;8.074;2023-02-19T05:07:49;97430.81;;;7.14;100.00
74708;BME280;63360;50.104;8.074;2023-02-19T05:10:16;97444.47;;;7.20;100.00
74708;BME280;63360;50.104;8.074;2023-02-19T05:12:42;97444.63;;;7.28;100.00
74708;BME280;63360;50.104;8.074;2023-02-19T05:15:08;97450.69;;;7.19;100.00
74708;BME280;63360;50.104;8.074;2023-02-19T05:17:35;97446.88;;;7.11;100.00
74708;BME280;63360;50.104;8.074;2023-02-19T05:20:01;97459.50;;;7.18;100.00
74708;BME280;63360;50.104;8.074;2023-02-19T05:22:28;97463.56;;;7.24;100.00
74708;BME280;63360;50.104;8.074;2023-02-19T05:24:55;97465.72;;;7.17;100.00
74708;BME280;63360;50.104;8.074;2023-02-19T05:27:21;97469.81;;;7.23;100.00
74708;BME280;63360;50.104;8.074;2023-02-19T05:29:48;97469.25;;;7.26;100.00
74708;BME280;63360;50.104;8.074;2023-02-19T05:32:14;97453.81;;;7.16;100.00
74708;BME280;63360;50.104;8.074;2023-02-19T05:34:40;97468.53;;;7.20;100.00
74708;BME280;63360;50.104;8.074;2023-02-19T05:37:07;97467.75;;;7.20;100.00
74708;BME280;63360;50.104;8.074;2023-02-19T05:39:33;97467.75;;;7.20;100.00
74708;BME280;63360;50.104;8.074;2023-02-19T05:42:00;97474.13;;;7.27;100.00
74708;BME280;63360;50.104;8.074;2023-02-19T05:44:26;97475.69;;;7.28;100.00
74708;BME280;63360;50.104;8.074;2023-02-19T05:46:52;97482.94;;;7.26;100.00
74708;BME280;63360;50.104;8.074;2023-02-19T05:49:19;97483.22;;;7.25;100.00
74708;BME280;63360;50.104;8.074;2023-02-19T05:51:45;97480.63;;;7.25;100.00
74708;BME280;63360;50.104;8.074;2023-02-19T05:54:15;97472.38;;;7.23;100.00
74708;BME280;63360;50.104;8.074;2023-02-19T05:56:41;97468.03;;;7.18;100.00
74708;BME280;63360;50.104;8.074;2023-02-19T05:59:19;97482.69;;;7.28;100.00
74708;BME280;63360;50.104;8.074;2023-02-19T06:01:47;97468.66;;;7.10;100.00
74708;BME280;63360;50.104;8.074;2023-02-19T06:04:14;97497.72;;;7.26;100.00
74708;BME280;63360;50.104;8.074;2023-02-19T06:06:41;97490.50;;;7.23;100.00
74708;BME280;63360;50.104;8.074;2023-02-19T06:09:08;97483.78;;;7.22;100.00
74708;BME280;63360;50.104;8.074;2023-02-19T06:11:34;97492.34;;;7.17;100.00
74708;BME280;63360;50.104;8.074;2023-02-19T06:14:01;97501.16;;;7.16;100.00
74708;BME280;63360;50.104;8.074;2023-02-19T06:16:27;97509.94;;;7.20;100.00
74708;BME280;63360;50.104;8.074;2023-02-19T06:18:54;97514.28;;;7.25;100.00
74708;BME280;63360;50.104;8.074;2023-02-19T06:21:20;97511.97;;;7.23;100.00
74708;BME280;63360;50.104;8.074;2023-02-19T06:23:47;97521.97;;;7.30;100.00
74708;BME280;63360;50.104;8.074;2023-02-19T06:26:19;97519.63;;;7.33;100.00
74708;BME280;63360;50.104;8.074;2023-02-19T06:28:47;97534.19;;;7.24;100.00
74708;BME280;63360;50.104;8.074;2023-02-19T06:31:14;97523.84;;;7.24;100.00
74708;BME280;63360;50.104;8.074;2023-02-19T06:33:41;97528.25;;;7.24;100.00
74708;BME280;63360;50.104;8.074;2023-02-19T06:36:13;97543.00;;;7.23;100.00
74708;BME280;63360;50.104;8.074;2023-02-19T06:38:40;97538.44;;;7.15;100.00
74708;BME280;63360;50.104;8.074;2023-02-19T06:41:08;97550.22;;;7.26;100.00
74708;BME280;63360;50.104;8.074;2023-02-19T06:43:35;97541.56;;;7.12;100.00
74708;BME280;63360;50.104;8.074;2023-02-19T06:46:03;97558.53;;;7.23;100.00
74708;BME280;63360;50.104;8.074;2023-02-19T06:48:31;97564.75;;;7.22;100.00
74708;BME280;63360;50.104;8.074;2023-02-19T06:50:58;97576.41;;;7.20;100.00
74708;BME280;63360;50.104;8.074;2023-02-19T06:53:24;97563.47;;;7.20;100.00
74708;BME280;63360;50.104;8.074;2023-02-19T06:56:01;97571.53;;;7.18;100.00
74708;BME280;63360;50.104;8.074;2023-02-19T06:58:28;97585.16;;;7.24;100.00
74708;BME280;63360;50.104;8.074;2023-02-19T07:00:55;97584.66;;;7.22;100.00
74708;BME280;63360;50.104;8.074;2023-02-19T07:03:21;97600.63;;;7.34;100.00
74708;BME280;63360;50.104;8.074;2023-02-19T07:05:48;97604.28;;;7.28;100.00
74708;BME280;63360;50.104;8.074;2023-02-19T07:08:14;97598.81;;;7.29;100.00
74708;BME280;63360;50.104;8.074;2023-02-19T07:10:44;97603.94;;;7.34;100.00
74708;BME280;63360;50.104;8.074;2023-02-19T07:13:10;97603.16;;;7.39;100.00
74708;BME280;63360;50.104;8.074;2023-02-19T07:15:37;97609.72;;;7.26;100.00
74708;BME280;63360;50.104;8.074;2023-02-19T07:18:03;97621.31;;;7.34;100.00
74708;BME280;63360;50.104;8.074;2023-02-19T07:20:32;97615.28;;;7.44;100.00
74708;BME280;63360;50.104;8.074;2023-02-19T07:22:58;97618.94;;;7.38;100.00
74708;BME280;63360;50.104;8.074;2023-02-19T07:25:24;97607.38;;;7.30;100.00
74708;BME280;63360;50.104;8.074;2023-02-19T07:27:51;97618.88;;;7.43;100.00
74708;BME280;63360;50.104;8.074;2023-02-19T07:30:17;97617.31;;;7.47;100.00
74708;BME280;63360;50.104;8.074;2023-02-19T07:32:44;97631.28;;;7.46;100.00
74708;BME280;63360;50.104;8.074;2023-02-19T07:35:10;97625.81;;;7.52;100.00
74708;BME280;63360;50.104;8.074;2023-02-19T07:37:37;97634.13;;;7.49;100.00
74708;BME280;63360;50.104;8.074;2023-02-19T07:40:04;97636.94;;;7.53;100.00
74708;BME280;63360;50.104;8.074;2023-02-19T07:42:30;97635.91;;;7.49;100.00
74708;BME280;63360;50.104;8.074;2023-02-19T07:44:56;97654.63;;;7.41;100.00
74708;BME280;63360;50.104;8.074;2023-02-19T07:47:25;97642.91;;;7.48;100.00
74708;BME280;63360;50.104;8.074;2023-02-19T07:49:52;97629.81;;;7.40;100.00
74708;BME280;63360;50.104;8.074;2023-02-19T07:52:18;97652.81;;;7.41;100.00
74708;BME280;63360;50.104;8.074;2023-02-19T07:54:44;97644.50;;;7.44;100.00
74708;BME280;63360;50.104;8.074;2023-02-19T07:57:11;97643.00;;;7.38;100.00
74708;BME280;63360;50.104;8.074;2023-02-19T07:59:37;97644.09;;;7.32;100.00
74708;BME280;63360;50.104;8.074;2023-02-19T08:02:07;97652.91;;;7.31;100.00
74708;BME280;63360;50.104;8.074;2023-02-19T08:04:53;97650.16;;;7.17;100.00
74708;BME280;63360;50.104;8.074;2023-02-19T08:07:20;97663.56;;;7.24;100.00
74708;BME280;63360;50.104;8.074;2023-02-19T08:09:46;97651.72;;;7.13;100.00
74708;BME280;63360;50.104;8.074;2023-02-19T08:12:32;97664.81;;;7.27;100.00
74708;BME280;63360;50.104;8.074;2023-02-19T08:15:17;97661.25;;;7.23;100.00
74708;BME280;63360;50.104;8.074;2023-02-19T08:17:46;97677.75;;;7.27;100.00
74708;BME280;63360;50.104;8.074;2023-02-19T08:20:12;97673.59;;;7.31;100.00
74708;BME280;63360;50.104;8.074;2023-02-19T08:22:38;97681.59;;;7.34;100.00
74708;BME280;63360;50.104;8.074;2023-02-19T08:25:05;97684.69;;;7.37;100.00
74708;BME280;63360;50.104;8.074;2023-02-19T08:27:32;97693.44;;;7.41;100.00
74708;BME280;63360;50.104;8.074;2023-02-19T08:29:58;97695.25;;;7.40;100.00
74708;BME280;63360;50.104;8.074;2023-02-19T08:32:24;97710.22;;;7.48;100.00
74708;BME280;63360;50.104;8.074;2023-02-19T08:34:51;97713.09;;;7.47;100.00
74708;BME280;63360;50.104;8.074;2023-02-19T08:37:17;97723.16;;;7.48;100.00
74708;BME280;63360;50.104;8.074;2023-02-19T08:39:43;97713.56;;;7.49;100.00
74708;BME280;63360;50.104;8.074;2023-02-19T08:42:10;97726.53;;;7.49;100.00
74708;BME280;63360;50.104;8.074;2023-02-19T08:44:36;97725.63;;;7.63;100.00
74708;BME280;63360;50.104;8.074;2023-02-19T08:47:03;97731.06;;;7.62;100.00
74708;BME280;63360;50.104;8.074;2023-02-19T08:49:30;97723.63;;;7.55;100.00
74708;BME280;63360;50.104;8.074;2023-02-19T08:51:56;97725.69;;;7.58;100.00
74708;BME280;63360;50.104;8.074;2023-02-19T08:54:22;97741.91;;;7.64;100.00
74708;BME280;63360;50.104;8.074;2023-02-19T08:56:49;97747.44;;;7.57;100.00
74708;BME280;63360;50.104;8.074;2023-02-19T08:59:15;97742.78;;;7.54;100.00
74708;BME280;63360;50.104;8.074;2023-02-19T09:01:42;97750.50;;;7.59;100.00
74708;BME280;63360;50.104;8.074;2023-02-19T09:04:11;97749.03;;;7.48;100.00
74708;BME280;63360;50.104;8.074;2023-02-19T09:06:38;97744.09;;;7.52;100.00
74708;BME280;63360;50.104;8.074;2023-02-19T09:09:05;97758.22;;;7.64;100.00
74708;BME280;63360;50.104;8.074;2023-02-19T09:11:31;97749.03;;;7.48;100.00
74708;BME280;63360;50.104;8.074;2023-02-19T09:13:58;97764.97;;;7.65;100.00
74708;BME280;63360;50.104;8.074;2023-02-19T09:16:24;97771.88;;;7.75;100.00
74708;BME280;63360;50.104;8.074;2023-02-19T09:18:51;97764.53;;;7.87;100.00
74708;BME280;63360;50.104;8.074;2023-02-19T09:21:17;97780.84;;;7.87;100.00
74708;BME280;63360;50.104;8.074;2023-02-19T09:23:43;97767.44;;;7.80;100.00
74708;BME280;63360;50.104;8.074;2023-02-19T09:26:10;97760.88;;;7.88;100.00
74708;BME280;63360;50.104;8.074;2023-02-19T09:28:36;97768.91;;;7.91;100.00
74708;BME280;63360;50.104;8.074;2023-02-19T09:31:09;97762.41;;;7.94;100.00
74708;BME280;63360;50.104;8.074;2023-02-19T09:33:37;97763.94;;;7.95;100.00
74708;BME280;63360;50.104;8.074;2023-02-19T09:36:03;97759.56;;;7.96;100.00
74708;BME280;63360;50.104;8.074;2023-02-19T09:38:30;97756.22;;;7.90;100.00
74708;BME280;63360;50.104;8.074;2023-02-19T09:40:57;97760.81;;;7.98;100.00
74708;BME280;63360;50.104;8.074;2023-02-19T09:43:26;97755.78;;;8.07;100.00
74708;BME280;63360;50.104;8.074;2023-02-19T09:46:01;97773.38;;;8.10;100.00
74708;BME280;63360;50.104;8.074;2023-02-19T09:48:29;97759.59;;;8.19;100.00
74708;BME280;63360;50.104;8.074;2023-02-19T09:50:56;97795.50;;;8.31;100.00
74708;BME280;63360;50.104;8.074;2023-02-19T09:53:26;97783.94;;;8.18;100.00
74708;BME280;63360;50.104;8.074;2023-02-19T09:55:55;97774.22;;;8.05;100.00
74708;BME280;63360;50.104;8.074;2023-02-19T09:58:27;97781.34;;;7.89;100.00
74708;BME280;63360;50.104;8.074;2023-02-19T10:00:57;97797.63;;;7.95;100.00
74708;BME280;63360;50.104;8.074;2023-02-19T10:03:35;97795.56;;;7.92;100.00
74708;BME280;63360;50.104;8.074;2023-02-19T10:06:07;97815.53;;;7.91;100.00
74708;BME280;63360;50.104;8.074;2023-02-19T10:08:40;97810.69;;;7.80;100.00
74708;BME280;63360;50.104;8.074;2023-02-19T10:11:11;97813.53;;;7.78;100.00
74708;BME280;63360;50.104;8.074;2023-02-19T10:13:43;97810.91;;;7.83;100.00
74708;BME280;63360;50.104;8.074;2023-02-19T10:16:14;97801.34;;;7.84;100.00
74708;BME280;63360;50.104;8.074;2023-02-19T10:18:43;97811.38;;;7.90;100.00
74708;BME280;63360;50.104;8.074;2023-02-19T10:21:20;97821.84;;;8.09;100.00
74708;BME280;63360;50.104;8.074;2023-02-19T10:23:51;97819.63;;;8.26;100.00
74708;BME280;63360;50.104;8.074;2023-02-19T10:26:19;97828.56;;;8.44;100.00
74708;BME280;63360;50.104;8.074;2023-02-19T10:28:45;97830.41;;;8.43;100.00
74708;BME280;63360;50.104;8.074;2023-02-19T10:31:17;97817.78;;;8.32;100.00
74708;BME280;63360;50.104;8.074;2023-02-19T10:33:51;97826.91;;;8.29;100.00
74708;BME280;63360;50.104;8.074;2023-02-19T10:36:24;97834.00;;;8.14;100.00
74708;BME280;63360;50.104;8.074;2023-02-19T10:38:52;97842.13;;;8.02;100.00
74708;BME280;63360;50.104;8.074;2023-02-19T10:41:21;97863.00;;;8.16;100.00
74708;BME280;63360;50.104;8.074;2023-02-19T10:46:42;97856.94;;;8.25;100.00
74708;BME280;63360;50.104;8.074;2023-02-19T10:49:24;97860.09;;;8.27;100.00
74708;BME280;63360;50.104;8.074;2023-02-19T10:51:55;97846.03;;;8.33;100.00
74708;BME280;63360;50.104;8.074;2023-02-19T10:54:32;97854.56;;;8.34;100.00
74708;BME280;63360;50.104;8.074;2023-02-19T10:59:57;97851.69;;;8.40;100.00
74708;BME280;63360;50.104;8.074;2023-02-19T11:02:24;97860.94;;;8.46;100.00
74708;BME280;63360;50.104;8.074;2023-02-19T11:07:53;97868.22;;;8.44;100.00
74708;BME280;63360;50.104;8.074;2023-02-19T11:10:28;97870.44;;;8.56;99.68
74708;BME280;63360;50.104;8.074;2023-02-19T11:12:58;97867.97;;;8.41;98.89
74708;BME280;63360;50.104;8.074;2023-02-19T11:17:58;97869.03;;;8.40;100.00
74708;BME280;63360;50.104;8.074;2023-02-19T11:20:25;97879.38;;;8.45;100.00
74708;BME280;63360;50.104;8.074;2023-02-19T11:22:58;97870.31;;;8.42;97.55
74708;BME280;63360;50.104;8.074;2023-02-19T11:25:26;97882.25;;;8.43;96.68
74708;BME280;63360;50.104;8.074;2023-02-19T11:28:02;97872.91;;;8.42;95.68
74708;BME280;63360;50.104;8.074;2023-02-19T11:35:52;97860.09;;;8.56;96.41
74708;BME280;63360;50.104;8.074;2023-02-19T11:38:20;97866.59;;;8.53;96.10
74708;BME280;63360;50.104;8.074;2023-02-19T11:41:02;97881.84;;;8.55;96.16
74708;BME280;63360;50.104;8.074;2023-02-19T11:48:52;97888.28;;;8.34;99.42
74708;BME280;63360;50.104;8.074;2023-02-19T11:51:31;97892.19;;;8.26;100.00
74708;BME280;63360;50.104;8.074;2023-02-19T11:56:35;97894.19;;;8.39;100.00
74708;BME280;63360;50.104;8.074;2023-02-19T11:59:03;97895.56;;;8.32;98.53
74708;BME280;63360;50.104;8.074;2023-02-19T12:04:52;97908.16;;;8.43;100.00
74708;BME280;63360;50.104;8.074;2023-02-19T12:21:22;97887.00;;;8.60;96.75
74708;BME280;63360;50.104;8.074;2023-02-19T12:24:16;97886.94;;;8.65;96.05
74708;BME280;63360;50.104;8.074;2023-02-19T12:27:31;97877.56;;;8.45;97.36
74708;BME280;63360;50.104;8.074;2023-02-19T12:30:07;97891.97;;;8.57;97.42
74708;BME280;63360;50.104;8.074;2023-02-19T12:35:34;97893.41;;;8.68;97.01
74708;BME280;63360;50.104;8.074;2023-02-19T12:38:21;97890.22;;;8.76;95.77
74708;BME280;63360;50.104;8.074;2023-02-19T12:41:12;97873.94;;;8.70;95.26
74708;BME280;63360;50.104;8.074;2023-02-19T12:43:53;97877.38;;;8.89;93.02
74708;BME280;63360;50.104;8.074;2023-02-19T12:46:28;97872.84;;;9.00;92.57
74708;BME280;63360;50.104;8.074;2023-02-19T12:49:11;97872.09;;;8.99;90.77
74708;BME280;63360;50.104;8.074;2023-02-19T12:51:45;97872.69;;;9.15;92.02
74708;BME280;63360;50.104;8.074;2023-02-19T12:54:20;97867.50;;;9.15;90.73
74708;BME280;63360;50.104;8.074;2023-02-19T12:57:14;97869.72;;;9.22;89.12
74708;BME280;63360;50.104;8.074;2023-02-19T12:59:58;97871.44;;;9.31;89.68
74708;BME280;63360;50.104;8.074;2023-02-19T13:02:44;97856.75;;;9.22;88.92
74708;BME280;63360;50.104;8.074;2023-02-19T13:10:53;97865.50;;;9.07;89.47
74708;BME280;63360;50.104;8.074;2023-02-19T13:13:27;97859.91;;;8.95;92.93
74708;BME280;63360;50.104;8.074;2023-02-19T13:16:01;97864.56;;;8.98;94.23
74708;BME280;63360;50.104;8.074;2023-02-19T13:18:38;97869.25;;;8.96;91.94
74708;BME280;63360;50.104;8.074;2023-02-19T13:21:06;97873.66;;;8.95;94.24
74708;BME280;63360;50.104;8.074;2023-02-19T13:23:35;97874.88;;;9.03;93.19
74708;BME280;63360;50.104;8.074;2023-02-19T13:32:16;97871.06;;;8.95;90.89
74708;BME280;63360;50.104;8.074;2023-02-19T13:35:24;97897.13;;;8.85;93.56
74708;BME280;63360;50.104;8.074;2023-02-19T13:37:54;97892.44;;;8.87;90.75
74708;BME280;63360;50.104;8.074;2023-02-19T13:40:31;97888.09;;;8.83;91.79
74708;BME280;63360;50.104;8.074;2023-02-19T13:43:03;97889.34;;;8.85;91.33
74708;BME280;63360;50.104;8.074;2023-02-19T13:45:42;97890.19;;;8.81;91.12
74708;BME280;63360;50.104;8.074;2023-02-19T13:48:30;97904.97;;;8.80;90.82
74708;BME280;63360;50.104;8.074;2023-02-19T13:53:57;97906.66;;;8.66;93.12
74708;BME280;63360;50.104;8.074;2023-02-19T13:59:34;97927.19;;;8.29;96.29
74708;BME280;63360;50.104;8.074;2023-02-19T14:14:36;97915.56;;;7.77;100.00
74708;BME280;63360;50.104;8.074;2023-02-19T14:27:53;97923.25;;;7.49;100.00
74708;BME280;63360;50.104;8.074;2023-02-19T14:30:22;97920.63;;;7.54;100.00
74708;BME280;63360;50.104;8.074;2023-02-19T14:32:49;97927.84;;;7.62;100.00
74708;BME280;63360;50.104;8.074;2023-02-19T14:35:38;97917.25;;;7.58;100.00
74708;BME280;63360;50.104;8.074;2023-02-19T14:38:06;97920.81;;;7.67;100.00
74708;BME280;63360;50.104;8.074;2023-02-19T14:40:39;97922.13;;;7.65;100.00
74708;BME280;63360;50.104;8.074;2023-02-19T14:43:12;97942.03;;;7.74;100.00
74708;BME280;63360;50.104;8.074;2023-02-19T14:45:42;97941.22;;;7.79;100.00
74708;BME280;63360;50.104;8.074;2023-02-19T14:48:17;97932.72;;;7.73;100.00
74708;BME280;63360;50.104;8.074;2023-02-19T14:50:47;97933.97;;;7.76;100.00
74708;BME280;63360;50.104;8.074;2023-02-19T14:53:16;97941.50;;;7.72;100.00
74708;BME280;63360;50.104;8.074;2023-02-19T14:55:45;97944.59;;;7.79;100.00
74708;BME280;63360;50.104;8.074;2023-02-19T14:58:20;97933.72;;;7.77;100.00
74708;BME280;63360;50.104;8.074;2023-02-19T15:00:47;97933.72;;;7.72;100.00
74708;BME280;63360;50.104;8.074;2023-02-19T15:03:32;97931.38;;;7.81;100.00
74708;BME280;63360;50.104;8.074;2023-02-19T15:06:11;97949.41;;;7.96;100.00
74708;BME280;63360;50.104;8.074;2023-02-19T15:08:43;97943.22;;;7.92;100.00